createdAt,value
2019-03-10T00:01:39.952Z,1.50
2019-03-10T00:04:09.972Z,1.50
2019-03-10T00:06:39.896Z,1.30
2019-03-10T00:09:11.566Z,1.30
2019-03-10T00:14:11.733Z,1.22
2019-03-10T00:16:41.820Z,1.10
2019-03-10T00:19:12.014Z,1.10
2019-03-10T00:21:42.339Z,1.40
2019-03-10T00:24:12.345Z,1.60
2019-03-10T00:26:42.614Z,1.32
2019-03-10T00:31:42.505Z,1.60
2019-03-10T00:34:12.734Z,1.22
2019-03-10T00:36:43.324Z,1.30
2019-03-10T00:40:19.541Z,1.30
2019-03-10T00:44:32.329Z,1.40
2019-03-10T00:48:23.376Z,1.10
2019-03-10T00:52:06.980Z,1.02
2019-03-10T00:54:37.070Z,1.37
2019-03-10T00:57:07.693Z,1.02
2019-03-10T00:59:38.003Z,1.07
2019-03-10T01:02:08.229Z,1.52
2019-03-10T01:04:38.343Z,1.10
2019-03-10T01:07:08.777Z,1.12
2019-03-10T01:09:39.004Z,1.30
2019-03-10T01:12:09.965Z,1.00
2019-03-10T01:14:40.363Z,1.00
2019-03-10T01:17:11.320Z,1.10
2019-03-10T01:19:41.776Z,1.30
2019-03-10T01:22:11.864Z,1.10
2019-03-10T01:24:42.219Z,1.07
2019-03-10T01:27:12.321Z,1.00
2019-03-10T01:29:42.531Z,0.80
2019-03-10T01:32:53.688Z,1.10
2019-03-10T01:35:36.512Z,1.10
2019-03-10T01:38:06.833Z,1.00
2019-03-10T01:40:36.797Z,0.90
2019-03-10T01:43:06.881Z,1.10
2019-03-10T01:45:36.724Z,1.00
2019-03-10T01:48:06.588Z,0.88
2019-03-10T01:50:36.705Z,1.30
2019-03-10T01:53:06.362Z,1.30
2019-03-10T01:55:36.953Z,1.02
2019-03-10T01:58:06.907Z,1.30
2019-03-10T02:00:36.729Z,1.07
2019-03-10T02:03:07.058Z,1.22
2019-03-10T02:05:36.948Z,2.10
2019-03-10T02:08:06.840Z,1.20
2019-03-10T02:10:36.972Z,1.00
2019-03-10T02:13:07.126Z,0.90
2019-03-10T02:15:37.371Z,0.80
2019-03-10T02:18:07.529Z,0.95
2019-03-10T02:20:38.566Z,1.47
2019-03-10T02:28:07.495Z,1.20
2019-03-10T02:30:37.480Z,0.90
2019-03-10T02:33:07.901Z,1.27
2019-03-10T02:35:37.946Z,1.10
2019-03-10T02:38:07.877Z,1.40
2019-03-10T02:40:37.955Z,1.00
2019-03-10T02:43:07.911Z,1.00
2019-03-10T02:45:37.961Z,1.20
2019-03-10T02:48:08.187Z,1.15
2019-03-10T02:50:38.318Z,1.10
2019-03-10T02:53:08.712Z,1.20
2019-03-10T02:55:38.598Z,1.27
2019-03-10T03:00:37.706Z,1.37
2019-03-10T03:03:07.496Z,1.30
2019-03-10T03:05:37.520Z,1.52
2019-03-10T03:08:07.680Z,1.45
2019-03-10T03:13:06.850Z,1.60
2019-03-10T03:15:36.844Z,1.60
2019-03-10T03:18:06.804Z,1.67
2019-03-10T03:20:36.689Z,1.40
2019-03-10T03:23:06.699Z,1.10
2019-03-10T03:30:34.642Z,1.00
2019-03-10T03:36:00.141Z,0.70
2019-03-10T03:38:58.098Z,0.75
2019-03-10T03:41:28.320Z,0.80
2019-03-10T03:43:58.866Z,0.70
2019-03-10T03:46:28.725Z,0.53
2019-03-10T03:48:59.366Z,0.90
2019-03-10T03:51:29.643Z,0.60
2019-03-10T03:56:29.788Z,0.60
2019-03-10T03:59:00.892Z,0.68
2019-03-10T04:01:34.742Z,0.57
2019-03-10T04:04:04.509Z,0.60
2019-03-10T04:06:34.659Z,0.50
2019-03-10T04:11:36.561Z,0.40
2019-03-10T04:14:06.948Z,0.60
2019-03-10T04:16:36.604Z,0.60
2019-03-10T04:21:35.881Z,0.70
2019-03-10T04:24:05.595Z,0.65
2019-03-10T04:26:35.348Z,0.60
2019-03-10T04:29:05.559Z,0.68
2019-03-10T04:31:35.172Z,0.62
2019-03-10T04:34:08.032Z,0.60
2019-03-10T04:36:37.892Z,0.55
2019-03-10T04:39:08.773Z,0.70
2019-03-10T04:41:38.705Z,0.82
2019-03-10T04:44:08.692Z,0.70
2019-03-10T04:49:10.571Z,0.60
2019-03-10T04:54:09.663Z,0.90
2019-03-10T04:59:20.851Z,0.75
2019-03-10T05:01:50.522Z,0.93
2019-03-10T05:04:20.317Z,0.90
2019-03-10T05:06:52.819Z,1.10
2019-03-10T05:09:22.540Z,0.85
2019-03-10T05:14:21.318Z,0.70
2019-03-10T05:16:50.889Z,0.93
2019-03-10T05:19:20.813Z,0.98
2019-03-10T05:21:50.586Z,0.93
2019-03-10T05:26:49.334Z,0.90
2019-03-10T05:29:19.320Z,1.00
2019-03-10T05:31:49.115Z,0.80
2019-03-10T05:34:19.068Z,0.90
2019-03-10T05:36:49.433Z,0.93
2019-03-10T05:39:19.548Z,1.00
2019-03-10T05:49:16.502Z,1.32
2019-03-10T05:51:46.572Z,1.05
2019-03-10T05:54:16.593Z,0.80
2019-03-10T05:59:15.502Z,0.60
2019-03-10T06:01:45.335Z,0.80
2019-03-10T06:04:15.520Z,0.90
2019-03-10T06:06:44.932Z,0.90
2019-03-10T06:09:14.838Z,1.00
2019-03-10T06:11:44.679Z,1.00
2019-03-10T06:16:43.746Z,0.90
2019-03-10T06:19:13.755Z,1.05
2019-03-10T06:21:43.558Z,1.15
2019-03-10T06:24:13.727Z,1.15
2019-03-10T06:26:43.565Z,1.40
2019-03-10T06:31:42.668Z,1.55
2019-03-10T06:34:12.901Z,1.20
2019-03-10T06:36:42.867Z,1.70
2019-03-10T06:39:12.733Z,1.77
2019-03-10T06:44:12.431Z,1.42
2019-03-10T06:46:42.818Z,1.30
2019-03-10T06:49:13.314Z,1.17
2019-03-10T06:51:43.635Z,1.65
2019-03-10T06:56:43.546Z,1.17
2019-03-10T06:59:13.699Z,1.30
2019-03-10T07:04:13.618Z,1.20
2019-03-10T07:06:43.678Z,1.30
2019-03-10T07:09:13.900Z,1.52
2019-03-10T07:11:43.669Z,1.50
2019-03-10T07:14:13.589Z,1.60
2019-03-10T07:19:13.677Z,1.57
2019-03-10T07:21:43.318Z,1.52
2019-03-10T07:24:13.584Z,1.62
2019-03-10T07:29:21.583Z,1.70
2019-03-10T07:34:54.642Z,1.60
2019-03-10T07:37:37.940Z,1.50
2019-03-10T07:40:33.894Z,1.50
2019-03-10T07:43:16.333Z,1.75
2019-03-10T07:46:10.304Z,1.92
2019-03-10T07:48:59.819Z,2.83
2019-03-10T07:51:49.127Z,2.52
2019-03-10T07:54:36.913Z,2.30
2019-03-10T07:57:25.662Z,2.47
2019-03-10T08:03:05.185Z,2.75
2019-03-10T08:05:54.591Z,2.72
2019-03-10T08:11:29.065Z,3.27
2019-03-10T08:14:33.765Z,1.67
2019-03-10T08:17:38.701Z,2.20
2019-03-10T08:20:26.483Z,2.20
2019-03-10T08:23:14.929Z,1.92
2019-03-10T08:26:20.028Z,1.50
2019-03-10T08:29:12.624Z,1.30
2019-03-10T08:32:02.004Z,0.82
2019-03-10T08:34:40.144Z,0.95
2019-03-10T08:37:42.600Z,0.70
2019-03-10T08:40:27.765Z,0.70
2019-03-10T08:43:08.579Z,0.72
2019-03-10T08:45:53.816Z,0.72
2019-03-10T08:48:34.097Z,0.57
2019-03-10T08:51:39.914Z,0.60
2019-03-10T08:54:15.672Z,0.70
2019-03-10T08:57:08.863Z,0.47
2019-03-10T09:00:07.545Z,0.40
2019-03-10T09:02:52.560Z,1.30
2019-03-10T09:08:30.902Z,0.45
2019-03-10T09:11:19.468Z,0.60
2019-03-10T09:14:01.597Z,0.60
2019-03-10T09:16:48.306Z,0.47
2019-03-10T09:19:36.874Z,0.50
2019-03-10T09:22:16.868Z,0.60
2019-03-10T09:24:57.487Z,0.68
2019-03-10T09:28:02.531Z,0.50
2019-03-10T09:30:51.305Z,0.55
2019-03-10T09:33:39.544Z,0.50
2019-03-10T09:36:36.120Z,0.60
2019-03-10T09:39:27.512Z,0.60
2019-03-10T09:42:32.660Z,0.53
2019-03-10T09:48:01.040Z,0.30
2019-03-10T09:50:44.909Z,0.50
2019-03-10T09:53:44.695Z,0.45
2019-03-10T09:59:13.164Z,0.28
2019-03-10T10:02:02.303Z,0.55
2019-03-10T10:04:58.655Z,0.50
2019-03-10T10:07:42.025Z,0.85
2019-03-10T10:10:48.320Z,0.57
2019-03-10T10:13:44.540Z,0.40
2019-03-10T10:16:39.974Z,0.53
2019-03-10T10:19:29.058Z,0.40
2019-03-10T10:23:49.640Z,0.80
2019-03-10T10:27:24.256Z,0.55
2019-03-10T10:31:14.737Z,0.47
2019-03-10T10:40:20.059Z,0.50
2019-03-10T10:46:28.355Z,0.50
2019-03-10T10:49:16.632Z,0.33
2019-03-10T10:52:09.651Z,0.45
2019-03-10T10:55:00.011Z,0.40
2019-03-10T10:57:50.556Z,0.50
2019-03-10T11:03:24.513Z,0.45
2019-03-10T11:06:19.703Z,0.60
2019-03-10T11:09:08.339Z,0.53
2019-03-10T11:12:11.589Z,0.80
2019-03-10T11:15:06.591Z,0.78
2019-03-10T11:17:46.128Z,0.90
2019-03-10T11:20:33.746Z,0.68
2019-03-10T11:23:22.977Z,0.65
2019-03-10T11:26:11.954Z,0.60
2019-03-10T11:28:53.587Z,0.33
2019-03-10T11:31:43.320Z,0.33
2019-03-10T11:37:29.254Z,0.40
2019-03-10T11:40:29.822Z,0.40
2019-03-10T11:43:19.829Z,0.20
2019-03-10T11:46:48.520Z,0.23
2019-03-10T11:52:19.745Z,0.20
2019-03-10T11:55:06.690Z,0.15
2019-03-10T11:57:56.797Z,0.23
2019-03-10T12:00:42.685Z,0.20
2019-03-10T12:06:30.685Z,0.20
2019-03-10T12:11:48.316Z,0.20
2019-03-10T12:14:19.107Z,0.35
2019-03-10T12:16:49.927Z,0.20
2019-03-10T12:19:20.569Z,0.30
2019-03-10T12:24:30.392Z,0.30
2019-03-10T12:27:02.567Z,0.20
2019-03-10T12:29:32.516Z,0.30
2019-03-10T12:32:02.667Z,0.50
2019-03-10T12:34:32.792Z,0.20
2019-03-10T12:37:02.705Z,0.20
2019-03-10T12:39:32.517Z,0.40
2019-03-10T12:42:02.443Z,0.10
2019-03-10T12:44:32.661Z,0.20
2019-03-10T12:47:02.746Z,0.15
2019-03-10T12:49:32.895Z,0.30
2019-03-10T12:52:02.738Z,0.20
2019-03-10T12:54:33.781Z,0.28
2019-03-10T12:57:03.562Z,0.10
2019-03-10T12:59:33.466Z,0.20
2019-03-10T13:02:03.998Z,0.30
2019-03-10T13:04:34.130Z,0.20
2019-03-10T13:07:11.837Z,0.17
2019-03-10T13:09:44.519Z,0.25
2019-03-10T13:12:20.057Z,0.35
2019-03-10T13:15:02.090Z,0.30
2019-03-10T13:17:37.336Z,0.47
2019-03-10T13:20:10.589Z,0.30
2019-03-10T13:25:10.339Z,0.40
2019-03-10T13:27:40.813Z,0.30
2019-03-10T13:30:13.888Z,0.40
2019-03-10T13:32:44.793Z,0.40
2019-03-10T13:35:15.811Z,0.40
2019-03-10T13:37:45.990Z,0.40
2019-03-10T13:40:16.454Z,0.57
2019-03-10T13:42:46.540Z,0.50
2019-03-10T13:47:47.126Z,0.50
2019-03-10T13:50:17.890Z,0.70
2019-03-10T13:52:48.578Z,0.60
2019-03-10T13:57:48.854Z,1.02
2019-03-10T14:00:22.675Z,0.80
2019-03-10T14:05:22.454Z,0.53
2019-03-10T14:07:52.585Z,1.10
2019-03-10T14:12:52.779Z,0.68
2019-03-10T14:15:22.910Z,0.70
2019-03-10T14:17:53.334Z,0.72
2019-03-10T14:20:23.315Z,0.60
2019-03-10T14:22:53.520Z,0.70
2019-03-10T14:25:23.746Z,0.80
2019-03-10T14:27:54.757Z,0.70
2019-03-10T14:30:24.866Z,0.72
2019-03-10T14:32:55.811Z,0.80
2019-03-10T14:35:25.825Z,0.90
2019-03-10T14:37:55.889Z,0.80
2019-03-10T14:40:26.569Z,0.88
2019-03-10T14:45:25.706Z,0.93
2019-03-10T14:47:56.324Z,1.10
2019-03-10T14:50:27.381Z,0.95
2019-03-10T14:52:58.244Z,0.78
2019-03-10T14:55:29.588Z,1.00
2019-03-10T14:58:01.010Z,0.90
2019-03-10T15:00:31.103Z,0.90
2019-03-10T15:03:01.326Z,1.00
2019-03-10T15:05:31.650Z,0.88
2019-03-10T15:08:01.559Z,1.50
2019-03-10T15:10:31.612Z,0.98
2019-03-10T15:15:30.988Z,1.02
2019-03-10T15:18:03.044Z,1.00
2019-03-10T15:20:34.639Z,1.02
2019-03-10T15:25:34.135Z,0.90
2019-03-10T15:28:04.354Z,1.52
2019-03-10T15:30:34.229Z,1.42
2019-03-10T15:33:04.139Z,1.42
2019-03-10T15:35:34.357Z,1.90
2019-03-10T15:38:04.170Z,1.37
2019-03-10T15:40:34.072Z,1.75
2019-03-10T15:43:03.909Z,1.70
2019-03-10T15:45:34.929Z,1.70
2019-03-10T15:48:05.414Z,1.60
2019-03-10T15:50:35.682Z,1.22
2019-03-10T15:55:37.682Z,1.75
2019-03-10T15:58:09.704Z,1.45
2019-03-10T16:00:40.660Z,1.75
2019-03-10T16:03:11.373Z,1.72
2019-03-10T16:05:42.698Z,1.60
2019-03-10T16:08:13.185Z,2.00
2019-03-10T16:10:45.136Z,1.92
2019-03-10T16:13:15.615Z,1.98
2019-03-10T16:18:16.370Z,1.95
2019-03-10T16:20:47.428Z,1.60
2019-03-10T16:23:18.513Z,2.20
2019-03-10T16:28:17.900Z,1.75
2019-03-10T16:30:48.357Z,2.33
2019-03-10T16:33:18.618Z,2.35
2019-03-10T16:35:48.754Z,1.65
2019-03-10T16:38:18.985Z,2.08
2019-03-10T16:40:49.313Z,2.08
2019-03-10T16:43:19.325Z,2.12
2019-03-10T16:45:49.529Z,1.85
2019-03-10T16:50:49.484Z,1.92
2019-03-10T16:53:20.615Z,2.55
2019-03-10T16:56:02.091Z,2.72
2019-03-10T16:58:24.009Z,1.90
2019-03-10T17:00:53.591Z,1.80
2019-03-10T17:03:25.556Z,2.02
2019-03-10T17:05:56.068Z,2.27
2019-03-10T17:08:26.560Z,2.22
2019-03-10T17:13:26.576Z,2.17
2019-03-10T17:15:56.717Z,2.20
2019-03-10T17:18:29.804Z,2.15
2019-03-10T17:21:00.866Z,2.20
2019-03-10T17:23:31.544Z,2.12
2019-03-10T17:26:03.127Z,2.00
2019-03-10T17:28:33.990Z,1.90
2019-03-10T17:31:05.322Z,2.00
2019-03-10T17:33:36.122Z,1.77
2019-03-10T17:36:07.031Z,1.77
2019-03-10T17:38:38.679Z,2.10
2019-03-10T17:41:09.326Z,2.00
2019-03-10T17:43:40.316Z,1.47
2019-03-10T17:46:11.473Z,1.72
2019-03-10T17:48:42.938Z,2.58
2019-03-10T17:51:14.537Z,2.27
2019-03-10T17:53:46.475Z,1.45
2019-03-10T17:56:19.963Z,1.85
2019-03-10T17:58:50.958Z,1.70
2019-03-10T18:01:22.010Z,2.02
2019-03-10T18:03:52.758Z,2.05
2019-03-10T18:06:23.319Z,2.27
2019-03-10T18:08:54.978Z,1.80
2019-03-10T18:11:27.138Z,1.90
2019-03-10T18:13:57.553Z,2.05
2019-03-10T18:21:27.535Z,2.10
2019-03-10T18:23:57.895Z,2.20
2019-03-10T18:26:30.034Z,1.77
2019-03-10T18:29:01.614Z,2.35
2019-03-10T18:31:32.316Z,1.80
2019-03-10T18:34:03.406Z,2.22
2019-03-10T18:36:34.383Z,1.98
2019-03-10T18:40:03.567Z,1.72
2019-03-10T18:43:24.965Z,1.60
2019-03-10T18:47:03.185Z,1.82
2019-03-10T18:51:27.038Z,1.67
2019-03-10T18:54:30.491Z,2.22
2019-03-10T18:57:54.272Z,1.75
2019-03-10T19:01:43.771Z,1.47
2019-03-10T19:05:42.658Z,1.90
2019-03-10T19:13:08.242Z,1.50
2019-03-10T19:16:43.248Z,1.82
2019-03-10T19:23:37.647Z,1.55
2019-03-10T19:27:17.727Z,1.87
2019-03-10T19:30:52.343Z,1.92
2019-03-10T19:39:01.147Z,1.70
2019-03-10T19:45:04.215Z,2.02
2019-03-10T19:48:50.947Z,1.80
2019-03-10T19:56:18.937Z,1.77
2019-03-10T20:03:32.493Z,1.52
2019-03-10T20:12:00.745Z,1.72
2019-03-10T20:19:45.966Z,1.40
2019-03-10T20:23:32.023Z,1.77
2019-03-10T20:42:30.754Z,1.57
2019-03-10T20:46:43.647Z,1.70
2019-03-10T20:50:08.747Z,2.30
2019-03-10T20:54:06.276Z,2.10
2019-03-10T20:57:28.221Z,2.90
2019-03-10T21:09:08.411Z,2.37
2019-03-10T21:13:13.673Z,3.10
2019-03-10T21:15:44.651Z,2.27
2019-03-10T21:20:45.749Z,2.70
2019-03-10T21:23:16.725Z,2.27
2019-03-10T21:25:48.261Z,1.85
2019-03-10T21:28:18.733Z,1.90
2019-03-10T21:30:49.575Z,1.92
2019-03-10T21:33:20.018Z,1.50
2019-03-10T21:35:51.120Z,1.67
2019-03-10T21:38:22.052Z,1.65
2019-03-10T21:40:54.075Z,1.57
2019-03-10T21:43:25.699Z,1.32
2019-03-10T21:45:56.285Z,4.47
2019-03-10T21:48:26.695Z,2.05
2019-03-10T21:50:56.706Z,2.00
2019-03-10T21:53:26.744Z,1.72
2019-03-10T21:55:58.980Z,1.82
2019-03-10T21:58:29.597Z,1.57
2019-03-10T22:03:30.351Z,2.10
2019-03-10T22:06:01.966Z,1.80
2019-03-10T22:08:33.350Z,1.70
2019-03-10T22:11:05.000Z,2.08
2019-03-10T22:13:46.108Z,2.10
2019-03-10T22:16:08.173Z,1.95
2019-03-10T22:18:38.868Z,1.90
2019-03-10T22:21:09.138Z,2.05
2019-03-10T22:23:39.946Z,1.80
2019-03-10T22:26:09.865Z,1.90
2019-03-10T22:28:40.939Z,2.00
2019-03-10T22:31:11.787Z,2.20
2019-03-10T22:33:41.633Z,1.80
2019-03-10T22:36:12.353Z,2.35
2019-03-10T22:38:42.889Z,1.95
2019-03-10T22:41:13.345Z,2.22
2019-03-10T22:43:43.572Z,2.33
2019-03-10T22:48:43.578Z,2.10
2019-03-10T22:51:13.522Z,2.55
2019-03-10T22:53:43.161Z,2.05
2019-03-10T22:56:13.134Z,2.37
2019-03-10T22:58:43.712Z,2.72
2019-03-10T23:01:14.169Z,2.60
2019-03-10T23:03:44.627Z,2.25
2019-03-10T23:08:44.467Z,2.52
2019-03-10T23:11:16.147Z,2.75
2019-03-10T23:13:46.219Z,2.87
2019-03-10T23:16:19.320Z,2.33
2019-03-10T23:18:49.552Z,3.27
2019-03-10T23:21:19.595Z,2.60
2019-03-10T23:23:49.981Z,2.87
2019-03-10T23:26:20.146Z,2.77
2019-03-10T23:28:51.328Z,2.67
2019-03-10T23:33:52.432Z,2.42
2019-03-10T23:36:22.314Z,2.22
2019-03-10T23:38:52.838Z,2.10
2019-03-10T23:41:23.894Z,2.15
2019-03-10T23:43:54.471Z,2.25
2019-03-10T23:46:26.324Z,2.15
2019-03-10T23:48:57.317Z,2.15
2019-03-10T23:51:27.843Z,2.33
2019-03-10T23:53:58.485Z,2.50
2019-03-10T23:56:28.077Z,1.90
2019-03-10T23:58:57.698Z,2.20
